sensor_id;sensor_type;location;lat;lon;timestamp;pressure;altitude;pressure_sealevel;temperature;humidity
19777;BME280;10047;42.490;26.012;2024-01-07T11:12:55;100024.94;;;14.96;100.00
19777;BME280;10047;42.490;26.012;2024-01-07T11:18:19;101013.50;;;14.61;100.00
19777;BME280;10047;42.490;26.012;2024-01-07T11:20:45;101214.81;;;14.62;100.00
19777;BME280;10047;42.490;26.012;2024-01-07T11:23:31;101157.91;;;14.52;100.00
19777;BME280;10047;42.490;26.012;2024-01-07T11:26:01;101083.63;;;14.55;100.00
19777;BME280;10047;42.490;26.012;2024-01-07T11:31:10;100885.94;;;14.17;100.00
19777;BME280;10047;42.490;26.012;2024-01-07T11:33:49;100960.53;;;14.92;100.00
19777;BME280;10047;42.490;26.012;2024-01-07T11:36:18;100894.06;;;14.89;100.00
19777;BME280;10047;42.490;26.012;2024-01-07T11:38:45;100894.06;;;14.89;100.00
19777;BME280;10047;42.490;26.012;2024-01-07T11:41:13;100814.69;;;14.88;100.00
19777;BME280;10047;42.490;26.012;2024-01-07T11:43:57;100728.81;;;14.79;100.00
19777;BME280;10047;42.490;26.012;2024-01-07T11:46:26;100659.06;;;14.48;100.00
19777;BME280;10047;42.490;26.012;2024-01-07T11:48:56;100654.19;;;14.65;100.00
19777;BME280;10047;42.490;26.012;2024-01-07T11:51:29;100661.72;;;14.69;100.00
19777;BME280;10047;42.490;26.012;2024-01-07T11:54:00;100545.13;;;14.12;100.00
19777;BME280;10047;42.490;26.012;2024-01-07T11:56:27;100639.72;;;14.64;100.00
19777;BME280;10047;42.490;26.012;2024-01-07T11:58:52;100660.09;;;14.67;100.00
19777;BME280;10047;42.490;26.012;2024-01-07T12:01:18;100560.59;;;14.07;100.00
19777;BME280;10047;42.490;26.012;2024-01-07T12:03:44;100627.13;;;14.33;100.00
19777;BME280;10047;42.490;26.012;2024-01-07T12:06:10;100656.59;;;14.45;100.00
19777;BME280;10047;42.490;26.012;2024-01-07T12:08:43;100657.94;;;14.55;100.00
19777;BME280;10047;42.490;26.012;2024-01-07T12:11:09;100671.84;;;14.20;100.00
19777;BME280;10047;42.490;26.012;2024-01-07T12:13:36;100768.84;;;14.54;100.00
19777;BME280;10047;42.490;26.012;2024-01-07T12:16:02;100756.88;;;14.28;100.00
19777;BME280;10047;42.490;26.012;2024-01-07T12:18:29;100811.78;;;14.46;100.00
19777;BME280;10047;42.490;26.012;2024-01-07T12:20:58;100842.50;;;14.46;100.00
19777;BME280;10047;42.490;26.012;2024-01-07T12:23:25;100849.69;;;14.61;100.00
19777;BME280;10047;42.490;26.012;2024-01-07T12:25:54;100877.00;;;14.60;100.00
19777;BME280;10047;42.490;26.012;2024-01-07T12:28:24;100881.19;;;14.35;100.00
19777;BME280;10047;42.490;26.012;2024-01-07T12:30:49;100994.44;;;14.71;100.00
19777;BME280;10047;42.490;26.012;2024-01-07T12:33:17;100952.53;;;14.46;100.00
19777;BME280;10047;42.490;26.012;2024-01-07T12:35:45;100935.41;;;14.48;100.00
19777;BME280;10047;42.490;26.012;2024-01-07T12:38:10;100903.03;;;14.15;100.00
19777;BME280;10047;42.490;26.012;2024-01-07T12:40:35;100953.66;;;14.36;100.00
19777;BME280;10047;42.490;26.012;2024-01-07T12:43:02;101043.94;;;14.71;100.00
19777;BME280;10047;42.490;26.012;2024-01-07T12:45:27;101017.88;;;14.56;100.00
19777;BME280;10047;42.490;26.012;2024-01-07T12:47:53;101061.81;;;14.73;100.00
19777;BME280;10047;42.490;26.012;2024-01-07T12:50:20;101069.44;;;14.74;100.00
19777;BME280;10047;42.490;26.012;2024-01-07T12:52:48;101086.72;;;14.66;100.00
19777;BME280;10047;42.490;26.012;2024-01-07T12:55:13;101069.84;;;14.59;100.00
19777;BME280;10047;42.490;26.012;2024-01-07T12:57:39;101066.56;;;14.54;100.00
19777;BME280;10047;42.490;26.012;2024-01-07T13:00:05;101092.38;;;14.47;100.00
19777;BME280;10047;42.490;26.012;2024-01-07T13:02:32;101093.47;;;14.37;100.00
19777;BME280;10047;42.490;26.012;2024-01-07T13:04:58;101193.16;;;14.75;100.00
19777;BME280;10047;42.490;26.012;2024-01-07T13:07:23;101165.81;;;14.43;100.00
19777;BME280;10047;42.490;26.012;2024-01-07T13:09:49;101221.13;;;14.49;100.00
19777;BME280;10047;42.490;26.012;2024-01-07T13:12:14;101241.22;;;14.29;100.00
19777;BME280;10047;42.490;26.012;2024-01-07T13:14:40;101316.66;;;14.49;100.00
19777;BME280;10047;42.490;26.012;2024-01-07T13:17:07;101321.28;;;14.34;100.00
19777;BME280;10047;42.490;26.012;2024-01-07T13:19:33;101420.53;;;14.59;100.00
19777;BME280;10047;42.490;26.012;2024-01-07T13:21:59;101471.59;;;14.64;100.00
19777;BME280;10047;42.490;26.012;2024-01-07T13:24:24;101442.38;;;14.33;100.00
19777;BME280;10047;42.490;26.012;2024-01-07T13:26:50;101447.13;;;14.07;100.00
19777;BME280;10047;42.490;26.012;2024-01-07T13:29:15;101511.94;;;14.06;100.00
19777;BME280;10047;42.490;26.012;2024-01-07T13:31:41;101678.41;;;14.47;100.00
19777;BME280;10047;42.490;26.012;2024-01-07T13:34:06;101664.16;;;14.34;100.00
19777;BME280;10047;42.490;26.012;2024-01-07T13:36:32;101772.50;;;14.31;100.00
19777;BME280;10047;42.490;26.012;2024-01-07T13:38:57;101773.03;;;13.89;100.00
19777;BME280;10047;42.490;26.012;2024-01-07T13:41:23;101926.09;;;14.24;100.00
19777;BME280;10047;42.490;26.012;2024-01-07T13:43:49;101960.44;;;13.99;100.00
19777;BME280;10047;42.490;26.012;2024-01-07T13:46:15;102063.44;;;14.19;100.00
19777;BME280;10047;42.490;26.012;2024-01-07T13:48:41;102100.13;;;14.18;100.00
19777;BME280;10047;42.490;26.012;2024-01-07T13:51:09;102138.75;;;13.83;100.00
19777;BME280;10047;42.490;26.012;2024-01-07T13:53:43;102196.66;;;13.88;100.00
19777;BME280;10047;42.490;26.012;2024-01-07T13:56:11;102506.84;;;14.58;100.00
19777;BME280;10047;42.490;26.012;2024-01-07T13:58:36;102495.81;;;14.38;100.00
19777;BME280;10047;42.490;26.012;2024-01-07T14:01:02;102402.19;;;13.57;100.00
19777;BME280;10047;42.490;26.012;2024-01-07T14:03:28;102794.50;;;14.65;100.00
19777;BME280;10047;42.490;26.012;2024-01-07T14:06:03;102846.56;;;14.56;100.00
19777;BME280;10047;42.490;26.012;2024-01-07T14:08:28;102815.72;;;14.20;100.00
19777;BME280;10047;42.490;26.012;2024-01-07T14:10:54;102953.16;;;14.35;100.00
19777;BME280;10047;42.490;26.012;2024-01-07T14:13:21;102872.69;;;13.80;100.00
19777;BME280;10047;42.490;26.012;2024-01-07T14:15:47;102940.72;;;13.55;100.00
19777;BME280;10047;42.490;26.012;2024-01-07T14:18:13;103030.19;;;13.54;100.00
19777;BME280;10047;42.490;26.012;2024-01-07T14:20:41;103160.22;;;14.03;100.00
19777;BME280;10047;42.490;26.012;2024-01-07T14:23:07;103256.56;;;14.00;100.00
19777;BME280;10047;42.490;26.012;2024-01-07T14:25:32;103291.41;;;13.90;100.00
19777;BME280;10047;42.490;26.012;2024-01-07T14:27:58;103342.19;;;13.63;100.00
19777;BME280;10047;42.490;26.012;2024-01-07T14:30:23;103506.34;;;13.93;100.00
19777;BME280;10047;42.490;26.012;2024-01-07T14:32:48;103514.53;;;13.71;100.00
19777;BME280;10047;42.490;26.012;2024-01-07T14:35:15;103655.91;;;14.10;100.00
19777;BME280;10047;42.490;26.012;2024-01-07T14:37:41;103644.63;;;13.99;100.00
19777;BME280;10047;42.490;26.012;2024-01-07T14:40:07;103598.63;;;13.54;100.00
19777;BME280;10047;42.490;26.012;2024-01-07T14:42:33;103614.44;;;13.34;100.00
19777;BME280;10047;42.490;26.012;2024-01-07T14:44:58;103714.75;;;13.64;100.00
19777;BME280;10047;42.490;26.012;2024-01-07T14:47:23;103766.53;;;13.54;100.00
19777;BME280;10047;42.490;26.012;2024-01-07T14:49:49;103821.50;;;13.72;100.00
19777;BME280;10047;42.490;26.012;2024-01-07T14:52:14;103913.00;;;13.85;100.00
19777;BME280;10047;42.490;26.012;2024-01-07T14:54:40;103955.75;;;13.89;100.00
19777;BME280;10047;42.490;26.012;2024-01-07T14:57:05;103925.00;;;13.51;100.00
19777;BME280;10047;42.490;26.012;2024-01-07T14:59:34;103999.09;;;13.83;100.00
19777;BME280;10047;42.490;26.012;2024-01-07T15:02:01;104031.69;;;13.56;100.00
19777;BME280;10047;42.490;26.012;2024-01-07T15:04:27;103970.25;;;13.55;100.00
19777;BME280;10047;42.490;26.012;2024-01-07T15:06:52;104051.44;;;13.62;100.00
19777;BME280;10047;42.490;26.012;2024-01-07T15:09:17;104009.56;;;13.26;100.00
19777;BME280;10047;42.490;26.012;2024-01-07T15:11:43;104075.97;;;13.55;100.00
19777;BME280;10047;42.490;26.012;2024-01-07T15:14:12;104095.34;;;13.46;100.00
19777;BME280;10047;42.490;26.012;2024-01-07T15:16:37;104087.63;;;13.44;100.00
19777;BME280;10047;42.490;26.012;2024-01-07T15:19:03;104091.34;;;13.24;100.00
19777;BME280;10047;42.490;26.012;2024-01-07T15:21:29;104075.63;;;13.42;100.00
19777;BME280;10047;42.490;26.012;2024-01-07T15:23:54;103979.69;;;13.23;100.00
19777;BME280;10047;42.490;26.012;2024-01-07T15:26:19;103870.63;;;13.22;100.00
19777;BME280;10047;42.490;26.012;2024-01-07T15:28:45;103854.34;;;13.17;100.00
19777;BME280;10047;42.490;26.012;2024-01-07T15:31:10;103931.09;;;13.22;100.00
19777;BME280;10047;42.490;26.012;2024-01-07T15:33:36;103972.31;;;13.02;100.00
19777;BME280;10047;42.490;26.012;2024-01-07T15:36:04;104057.19;;;13.22;100.00
19777;BME280;10047;42.490;26.012;2024-01-07T15:38:31;104107.19;;;13.13;100.00
19777;BME280;10047;42.490;26.012;2024-01-07T15:40:56;104119.16;;;12.85;100.00
19777;BME280;10047;42.490;26.012;2024-01-07T15:43:21;104224.00;;;13.15;100.00
19777;BME280;10047;42.490;26.012;2024-01-07T15:45:47;104239.00;;;13.04;100.00
19777;BME280;10047;42.490;26.012;2024-01-07T15:48:12;104214.09;;;12.72;100.00
19777;BME280;10047;42.490;26.012;2024-01-07T15:50:39;104362.72;;;13.11;100.00
19777;BME280;10047;42.490;26.012;2024-01-07T15:53:05;104424.13;;;12.89;100.00
19777;BME280;10047;42.490;26.012;2024-01-07T15:55:30;104498.56;;;12.76;100.00
19777;BME280;10047;42.490;26.012;2024-01-07T15:57:56;104608.78;;;13.07;100.00
19777;BME280;10047;42.490;26.012;2024-01-07T16:00:21;104622.97;;;13.00;100.00
19777;BME280;10047;42.490;26.012;2024-01-07T16:02:46;104709.81;;;12.99;100.00
19777;BME280;10047;42.490;26.012;2024-01-07T16:05:12;104728.31;;;12.93;100.00
19777;BME280;10047;42.490;26.012;2024-01-07T16:07:38;104782.75;;;12.91;100.00
19777;BME280;10047;42.490;26.012;2024-01-07T16:10:03;104809.97;;;12.70;100.00
19777;BME280;10047;42.490;26.012;2024-01-07T16:12:29;104851.53;;;12.86;100.00
19777;BME280;10047;42.490;26.012;2024-01-07T16:14:56;104922.19;;;12.86;100.00
19777;BME280;10047;42.490;26.012;2024-01-07T16:17:22;105001.50;;;12.87;100.00
19777;BME280;10047;42.490;26.012;2024-01-07T16:19:48;105067.66;;;12.64;100.00
19777;BME280;10047;42.490;26.012;2024-01-07T16:22:13;105108.19;;;12.56;100.00
19777;BME280;10047;42.490;26.012;2024-01-07T16:24:39;105162.97;;;12.80;100.00
19777;BME280;10047;42.490;26.012;2024-01-07T16:27:08;105251.59;;;12.64;100.00
19777;BME280;10047;42.490;26.012;2024-01-07T16:29:34;105392.22;;;12.83;100.00
19777;BME280;10047;42.490;26.012;2024-01-07T16:32:00;105518.22;;;12.82;100.00
19777;BME280;10047;42.490;26.012;2024-01-07T16:34:26;105487.53;;;12.66;100.00
19777;BME280;10047;42.490;26.012;2024-01-07T16:36:53;105497.13;;;12.70;100.00
19777;BME280;10047;42.490;26.012;2024-01-07T16:39:18;105503.75;;;12.66;100.00
19777;BME280;10047;42.490;26.012;2024-01-07T16:41:44;105562.38;;;12.63;100.00
19777;BME280;10047;42.490;26.012;2024-01-07T16:44:09;105562.88;;;12.11;100.00
19777;BME280;10047;42.490;26.012;2024-01-07T16:46:35;105706.47;;;12.52;100.00
19777;BME280;10047;42.490;26.012;2024-01-07T16:49:04;105762.34;;;12.61;100.00
19777;BME280;10047;42.490;26.012;2024-01-07T16:51:32;105796.91;;;12.27;100.00
19777;BME280;10047;42.490;26.012;2024-01-07T16:53:58;105872.25;;;12.48;100.00
19777;BME280;10047;42.490;26.012;2024-01-07T16:56:23;105974.91;;;12.55;100.00
19777;BME280;10047;42.490;26.012;2024-01-07T16:58:49;106136.69;;;12.56;100.00
19777;BME280;10047;42.490;26.012;2024-01-07T17:01:16;106158.41;;;12.10;100.00
19777;BME280;10047;42.490;26.012;2024-01-07T17:03:41;106245.91;;;12.20;100.00
19777;BME280;10047;42.490;26.012;2024-01-07T17:06:07;106392.72;;;12.39;100.00
19777;BME280;10047;42.490;26.012;2024-01-07T17:08:35;106354.72;;;12.18;100.00
19777;BME280;10047;42.490;26.012;2024-01-07T17:11:00;106274.06;;;12.09;100.00
19777;BME280;10047;42.490;26.012;2024-01-07T17:13:26;106122.09;;;12.14;100.00
19777;BME280;10047;42.490;26.012;2024-01-07T17:15:51;106156.34;;;12.31;100.00
19777;BME280;10047;42.490;26.012;2024-01-07T17:18:17;106141.84;;;12.30;100.00
19777;BME280;10047;42.490;26.012;2024-01-07T17:20:42;106270.03;;;12.37;100.00
19777;BME280;10047;42.490;26.012;2024-01-07T17:23:08;106429.47;;;12.41;100.00
19777;BME280;10047;42.490;26.012;2024-01-07T17:25:33;106423.50;;;11.81;100.00
19777;BME280;10047;42.490;26.012;2024-01-07T17:27:58;106549.91;;;11.87;100.00
19777;BME280;10047;42.490;26.012;2024-01-07T17:30:24;106618.94;;;12.24;100.00
19777;BME280;10047;42.490;26.012;2024-01-07T17:32:58;106793.38;;;12.23;100.00
19777;BME280;10047;42.490;26.012;2024-01-07T17:35:25;106847.19;;;12.14;100.00
19777;BME280;10047;42.490;26.012;2024-01-07T17:37:51;107010.97;;;11.87;100.00
19777;BME280;10047;42.490;26.012;2024-01-07T17:40:17;107452.78;;;12.18;100.00
19777;BME280;10047;42.490;26.012;2024-01-07T17:42:42;107824.09;;;12.38;100.00
19777;BME280;10047;42.490;26.012;2024-01-07T17:45:08;108001.75;;;12.34;100.00
19777;BME280;10047;42.490;26.012;2024-01-07T17:47:34;108130.19;;;12.06;100.00
19777;BME280;10047;42.490;26.012;2024-01-07T17:50:01;108535.13;;;12.11;100.00
19777;BME280;10047;42.490;26.012;2024-01-07T17:52:29;108914.88;;;12.26;100.00
19777;BME280;10047;42.490;26.012;2024-01-07T17:54:55;109279.78;;;12.65;100.00
19777;BME280;10047;42.490;26.012;2024-01-07T17:57:24;109345.22;;;12.56;100.00
19777;BME280;10047;42.490;26.012;2024-01-07T17:59:51;109443.34;;;12.50;100.00
19777;BME280;10047;42.490;26.012;2024-01-07T18:02:17;109501.22;;;12.28;100.00
19777;BME280;10047;42.490;26.012;2024-01-07T18:04:43;109585.97;;;12.45;100.00
19777;BME280;10047;42.490;26.012;2024-01-07T18:07:08;109601.66;;;12.55;100.00
19777;BME280;10047;42.490;26.012;2024-01-07T18:09:35;109607.31;;;12.32;100.00
19777;BME280;10047;42.490;26.012;2024-01-07T18:12:01;109616.25;;;12.56;100.00
19777;BME280;10047;42.490;26.012;2024-01-07T18:14:28;109512.94;;;11.98;100.00
19777;BME280;10047;42.490;26.012;2024-01-07T18:16:54;109520.59;;;12.47;100.00
19777;BME280;10047;42.490;26.012;2024-01-07T18:19:19;109430.25;;;12.11;100.00
19777;BME280;10047;42.490;26.012;2024-01-07T18:21:45;109379.50;;;12.00;100.00
19777;BME280;10047;42.490;26.012;2024-01-07T18:24:10;109435.31;;;12.33;100.00
19777;BME280;10047;42.490;26.012;2024-01-07T18:26:36;109390.84;;;11.95;100.00
19777;BME280;10047;42.490;26.012;2024-01-07T18:29:02;109418.38;;;12.05;100.00
19777;BME280;10047;42.490;26.012;2024-01-07T18:31:27;109350.72;;;11.66;100.00
19777;BME280;10047;42.490;26.012;2024-01-07T18:33:53;109389.41;;;11.90;100.00
19777;BME280;10047;42.490;26.012;2024-01-07T18:36:18;109514.19;;;12.08;100.00
19777;BME280;10047;42.490;26.012;2024-01-07T18:38:44;109668.31;;;12.43;100.00
19777;BME280;10047;42.490;26.012;2024-01-07T18:41:09;109576.97;;;12.06;100.00
19777;BME280;10047;42.490;26.012;2024-01-07T18:43:35;109384.94;;;11.47;100.00
19777;BME280;10047;42.490;26.012;2024-01-07T18:46:00;109422.22;;;11.87;100.00
19777;BME280;10047;42.490;26.012;2024-01-07T18:48:26;109341.41;;;11.74;100.00
19777;BME280;10047;42.490;26.012;2024-01-07T18:50:52;109395.75;;;11.87;100.00
19777;BME280;10047;42.490;26.012;2024-01-07T18:53:18;109531.19;;;12.15;100.00
19777;BME280;10047;42.490;26.012;2024-01-07T18:55:44;109603.22;;;11.98;100.00
19777;BME280;10047;42.490;26.012;2024-01-07T18:58:12;109690.66;;;12.03;100.00
19777;BME280;10047;42.490;26.012;2024-01-07T19:00:38;109633.75;;;12.11;100.00
19777;BME280;10047;42.490;26.012;2024-01-07T19:03:07;109684.31;;;12.20;100.00
19777;BME280;10047;42.490;26.012;2024-01-07T19:05:32;109668.94;;;11.99;100.00
19777;BME280;10047;42.490;26.012;2024-01-07T19:07:57;109654.84;;;11.89;100.00
19777;BME280;10047;42.490;26.012;2024-01-07T19:10:23;109739.28;;;12.24;100.00
19777;BME280;10047;42.490;26.012;2024-01-07T19:12:49;109599.56;;;11.89;100.00
19777;BME280;10047;42.490;26.012;2024-01-07T19:15:15;109626.03;;;11.97;100.00
19777;BME280;10047;42.490;26.012;2024-01-07T19:17:43;109634.13;;;12.14;100.00
19777;BME280;10047;42.490;26.012;2024-01-07T19:20:16;109630.06;;;11.95;100.00
19777;BME280;10047;42.490;26.012;2024-01-07T19:22:41;109566.16;;;11.74;100.00
19777;BME280;10047;42.490;26.012;2024-01-07T19:25:08;109599.69;;;11.70;100.00
19777;BME280;10047;42.490;26.012;2024-01-07T19:27:33;109624.88;;;11.74;100.00
19777;BME280;10047;42.490;26.012;2024-01-07T19:30:00;109636.78;;;11.94;100.00
19777;BME280;10047;42.490;26.012;2024-01-07T19:32:26;109655.25;;;11.92;100.00
19777;BME280;10047;42.490;26.012;2024-01-07T19:34:52;109743.03;;;11.99;100.00
19777;BME280;10047;42.490;26.012;2024-01-07T19:37:18;109751.22;;;11.90;100.00
19777;BME280;10047;42.490;26.012;2024-01-07T19:39:45;109728.00;;;11.55;100.00
19777;BME280;10047;42.490;26.012;2024-01-07T19:42:11;109788.91;;;11.78;100.00
19777;BME280;10047;42.490;26.012;2024-01-07T19:44:40;109903.91;;;11.85;100.00
19777;BME280;10047;42.490;26.012;2024-01-07T19:47:06;109951.78;;;11.74;100.00
19777;BME280;10047;42.490;26.012;2024-01-07T19:49:31;109983.19;;;11.60;100.00
19777;BME280;10047;42.490;26.012;2024-01-07T19:51:57;110019.81;;;11.73;100.00
19777;BME280;10047;42.490;26.012;2024-01-07T19:54:22;109971.13;;;11.59;100.00
19777;BME280;10047;42.490;26.012;2024-01-07T19:56:49;110118.53;;;11.60;100.00
19777;BME280;10047;42.490;26.012;2024-01-07T19:59:15;110190.50;;;11.45;100.00
19777;BME280;10047;42.490;26.012;2024-01-07T20:01:45;110327.66;;;11.77;100.00
19777;BME280;10047;42.490;26.012;2024-01-07T20:04:11;110231.75;;;11.10;100.00
19777;BME280;10047;42.490;26.012;2024-01-07T20:06:40;110452.13;;;11.78;100.00
19777;BME280;10047;42.490;26.012;2024-01-07T20:09:06;110425.25;;;11.56;100.00
19777;BME280;10047;42.490;26.012;2024-01-07T20:11:32;110444.25;;;11.58;100.00
19777;BME280;10047;42.490;26.012;2024-01-07T20:13:58;110464.97;;;11.54;100.00
19777;BME280;10047;42.490;26.012;2024-01-07T20:16:23;110643.88;;;11.61;100.00
19777;BME280;10047;42.490;26.012;2024-01-07T20:18:50;110452.25;;;11.00;100.00
19777;BME280;10047;42.490;26.012;2024-01-07T20:21:22;110721.56;;;11.51;100.00
19777;BME280;10047;42.490;26.012;2024-01-07T20:23:59;110710.88;;;11.00;100.00
19777;BME280;10047;42.490;26.012;2024-01-07T20:26:26;110981.75;;;11.14;100.00
19777;BME280;10047;42.490;26.012;2024-01-07T20:28:55;111116.00;;;11.42;100.00
19777;BME280;10047;42.490;26.012;2024-01-07T20:31:22;111226.03;;;11.54;100.00
19777;BME280;10047;42.490;26.012;2024-01-07T20:33:48;111443.38;;;11.61;100.00
19777;BME280;10047;42.490;26.012;2024-01-07T20:36:14;111599.03;;;11.71;100.00
19777;BME280;10047;42.490;26.012;2024-01-07T20:38:42;111634.50;;;11.53;100.00
19777;BME280;10047;42.490;26.012;2024-01-07T20:41:08;111572.69;;;11.44;100.00
19777;BME280;10047;42.490;26.012;2024-01-07T20:43:34;111507.13;;;11.17;100.00
19777;BME280;10047;42.490;26.012;2024-01-07T20:46:00;111787.50;;;11.51;100.00
19777;BME280;10047;42.490;26.012;2024-01-07T20:48:26;111718.97;;;10.85;100.00
19777;BME280;10047;42.490;26.012;2024-01-07T20:50:52;111862.03;;;11.22;100.00
19777;BME280;10047;42.490;26.012;2024-01-07T20:53:18;111925.34;;;11.19;100.00
19777;BME280;10047;42.490;26.012;2024-01-07T20:55:46;111988.31;;;11.45;100.00
19777;BME280;10047;42.490;26.012;2024-01-07T20:58:11;112074.97;;;11.49;100.00
19777;BME280;10047;42.490;26.012;2024-01-07T21:00:45;112165.75;;;11.47;100.00
19777;BME280;10047;42.490;26.012;2024-01-07T21:03:12;112135.38;;;11.33;100.00
19777;BME280;10047;42.490;26.012;2024-01-07T21:05:38;112239.00;;;11.07;100.00
19777;BME280;10047;42.490;26.012;2024-01-07T21:08:04;112437.28;;;11.12;100.00
19777;BME280;10047;42.490;26.012;2024-01-07T21:10:29;112506.94;;;11.35;100.00
19777;BME280;10047;42.490;26.012;2024-01-07T21:12:55;112589.47;;;11.40;100.00
19777;BME280;10047;42.490;26.012;2024-01-07T21:15:20;112611.00;;;11.37;100.00
19777;BME280;10047;42.490;26.012;2024-01-07T21:17:45;112695.41;;;11.42;100.00
19777;BME280;10047;42.490;26.012;2024-01-07T21:20:11;112726.59;;;11.35;100.00
19777;BME280;10047;42.490;26.012;2024-01-07T21:22:37;112652.28;;;11.24;100.00
19777;BME280;10047;42.490;26.012;2024-01-07T21:25:04;112660.91;;;10.87;100.00
19777;BME280;10047;42.490;26.012;2024-01-07T21:27:30;112793.28;;;10.99;100.00
19777;BME280;10047;42.490;26.012;2024-01-07T21:29:57;112800.41;;;11.15;100.00
19777;BME280;10047;42.490;26.012;2024-01-07T21:32:23;112909.69;;;11.21;100.00
19777;BME280;10047;42.490;26.012;2024-01-07T21:34:51;113060.38;;;11.21;100.00
19777;BME280;10047;42.490;26.012;2024-01-07T21:37:16;113054.81;;;11.05;100.00
19777;BME280;10047;42.490;26.012;2024-01-07T21:39:42;113216.78;;;11.11;100.00
19777;BME280;10047;42.490;26.012;2024-01-07T21:42:07;113216.69;;;11.01;100.00
19777;BME280;10047;42.490;26.012;2024-01-07T21:44:34;113273.53;;;11.00;100.00
19777;BME280;10047;42.490;26.012;2024-01-07T21:46:59;113476.97;;;11.09;100.00
19777;BME280;10047;42.490;26.012;2024-01-07T21:49:26;113809.72;;;11.26;100.00
19777;BME280;10047;42.490;26.012;2024-01-07T21:51:51;113838.72;;;10.87;100.00
19777;BME280;10047;42.490;26.012;2024-01-07T21:54:17;113816.16;;;11.02;100.00
19777;BME280;10047;42.490;26.012;2024-01-07T21:56:42;113787.16;;;10.98;100.00
19777;BME280;10047;42.490;26.012;2024-01-07T21:59:07;113957.09;;;10.88;100.00
19777;BME280;10047;42.490;26.012;2024-01-07T22:01:33;114071.63;;;10.94;100.00
19777;BME280;10047;42.490;26.012;2024-01-07T22:03:58;114149.00;;;10.81;100.00
19777;BME280;10047;42.490;26.012;2024-01-07T22:06:24;114252.00;;;10.94;100.00
19777;BME280;10047;42.490;26.012;2024-01-07T22:08:49;114408.28;;;10.43;100.00
19777;BME280;10047;42.490;26.012;2024-01-07T22:11:15;114461.44;;;10.82;100.00
19777;BME280;10047;42.490;26.012;2024-01-07T22:13:41;114404.47;;;10.41;100.00
19777;BME280;10047;42.490;26.012;2024-01-07T22:16:11;114732.81;;;10.93;100.00
19777;BME280;10047;42.490;26.012;2024-01-07T22:18:37;114755.09;;;10.70;100.00
19777;BME280;10047;42.490;26.012;2024-01-07T22:21:03;114954.00;;;10.80;100.00
19777;BME280;10047;42.490;26.012;2024-01-07T22:23:29;114874.38;;;10.46;100.00
19777;BME280;10047;42.490;26.012;2024-01-07T22:25:54;114791.31;;;10.24;100.00
19777;BME280;10047;42.490;26.012;2024-01-07T22:28:20;114826.81;;;10.43;100.00
19777;BME280;10047;42.490;26.012;2024-01-07T22:30:45;115239.97;;;10.41;100.00
19777;BME280;10047;42.490;26.012;2024-01-07T22:33:10;115464.81;;;10.58;100.00
19777;BME280;10047;42.490;26.012;2024-01-07T22:35:36;115664.16;;;10.70;99.93
19777;BME280;10047;42.490;26.012;2024-01-07T22:38:02;115711.44;;;10.72;99.88
19777;BME280;10047;42.490;26.012;2024-01-07T22:40:29;115517.84;;;10.21;99.80
19777;BME280;10047;42.490;26.012;2024-01-07T22:42:57;115613.88;;;10.39;99.77
19777;BME280;10047;42.490;26.012;2024-01-07T22:45:22;115912.16;;;10.67;99.77
19777;BME280;10047;42.490;26.012;2024-01-07T22:47:49;115874.31;;;10.29;99.70
19777;BME280;10047;42.490;26.012;2024-01-07T22:50:28;116070.13;;;10.51;99.69
19777;BME280;10047;42.490;26.012;2024-01-07T22:52:56;116156.66;;;10.28;99.63
19777;BME280;10047;42.490;26.012;2024-01-07T22:55:22;116433.72;;;10.03;99.56
19777;BME280;10047;42.490;26.012;2024-01-07T22:57:56;117078.84;;;10.75;99.62
19777;BME280;10047;42.490;26.012;2024-01-07T23:00:22;116895.44;;;10.22;99.54
19777;BME280;10047;42.490;26.012;2024-01-07T23:02:50;116894.88;;;10.40;99.55
19777;BME280;10047;42.490;26.012;2024-01-07T23:05:16;116878.50;;;10.46;99.56
19777;BME280;10047;42.490;26.012;2024-01-07T23:07:43;117134.59;;;10.56;99.55
19777;BME280;10047;42.490;26.012;2024-01-07T23:10:12;117269.88;;;10.45;99.53
19777;BME280;10047;42.490;26.012;2024-01-07T23:12:41;117346.13;;;10.05;99.46
19777;BME280;10047;42.490;26.012;2024-01-07T23:15:07;117387.22;;;10.22;99.46
19777;BME280;10047;42.490;26.012;2024-01-07T23:17:32;117496.91;;;10.68;99.50
19777;BME280;10047;42.490;26.012;2024-01-07T23:19:58;117675.63;;;10.83;99.50
19777;BME280;10047;42.490;26.012;2024-01-07T23:22:23;117755.16;;;10.52;99.47
19777;BME280;10047;42.490;26.012;2024-01-07T23:24:50;117860.03;;;10.85;99.51
19777;BME280;10047;42.490;26.012;2024-01-07T23:27:23;117799.66;;;10.79;99.48
19777;BME280;10047;42.490;26.012;2024-01-07T23:29:52;117617.81;;;10.71;99.50
19777;BME280;10047;42.490;26.012;2024-01-07T23:32:18;117517.59;;;10.32;99.45
19777;BME280;10047;42.490;26.012;2024-01-07T23:34:43;117595.38;;;10.70;99.50
19777;BME280;10047;42.490;26.012;2024-01-07T23:37:09;117423.13;;;10.19;99.43
19777;BME280;10047;42.490;26.012;2024-01-07T23:39:34;117831.56;;;10.41;99.44
19777;BME280;10047;42.490;26.012;2024-01-07T23:42:01;118243.41;;;10.78;99.49
19777;BME280;10047;42.490;26.012;2024-01-07T23:44:26;118339.50;;;10.56;99.45